createdAt,value
2018-08-22T00:01:50.482Z,65.60
2018-08-22T00:03:54.066Z,65.90
2018-08-22T00:05:57.609Z,66.50
2018-08-22T00:08:01.163Z,66.50
2018-08-22T00:10:04.895Z,67.00
2018-08-22T00:12:08.539Z,66.90
2018-08-22T00:14:12.069Z,66.80
2018-08-22T00:16:15.667Z,66.80
2018-08-22T00:18:19.450Z,67.00
2018-08-22T00:20:22.963Z,67.20
2018-08-22T00:22:26.552Z,67.20
2018-08-22T00:24:30.051Z,67.50
2018-08-22T00:26:33.605Z,67.20
2018-08-22T00:28:37.251Z,66.80
2018-08-22T00:30:40.749Z,66.90
2018-08-22T00:32:44.292Z,66.60
2018-08-22T00:34:47.812Z,66.60
2018-08-22T00:36:51.361Z,67.00
2018-08-22T00:38:54.943Z,67.50
2018-08-22T00:40:58.631Z,67.20
2018-08-22T00:43:02.217Z,67.40
2018-08-22T00:45:05.787Z,67.10
2018-08-22T00:47:09.377Z,67.50
2018-08-22T00:49:12.949Z,67.50
2018-08-22T00:51:16.470Z,66.80
2018-08-22T00:53:20.020Z,67.30
2018-08-22T00:55:24.480Z,69.30
2018-08-22T00:57:28.028Z,69.20
2018-08-22T00:59:31.523Z,69.00
2018-08-22T01:01:35.000Z,68.80
2018-08-22T01:03:38.499Z,68.40
2018-08-22T01:05:42.002Z,68.10
2018-08-22T01:07:45.611Z,67.90
2018-08-22T01:09:49.186Z,68.20
2018-08-22T01:11:52.704Z,68.20
2018-08-22T01:13:56.331Z,68.90
2018-08-22T01:15:59.835Z,69.10
2018-08-22T01:18:03.332Z,68.90
2018-08-22T01:20:07.155Z,68.60
2018-08-22T01:22:10.652Z,68.10
2018-08-22T01:24:14.290Z,67.80
2018-08-22T01:26:17.804Z,67.40
2018-08-22T01:28:21.295Z,67.50
2018-08-22T01:30:24.898Z,67.70
2018-08-22T01:32:28.448Z,68.70
2018-08-22T01:34:31.943Z,68.90
2018-08-22T01:36:35.507Z,69.60
2018-08-22T01:38:38.995Z,69.90
2018-08-22T01:40:42.513Z,69.70
2018-08-22T01:42:46.047Z,69.20
2018-08-22T01:44:49.667Z,69.20
2018-08-22T01:46:53.135Z,69.20
2018-08-22T01:48:56.803Z,69.50
2018-08-22T01:51:00.441Z,69.80
2018-08-22T01:53:04.054Z,70.70
2018-08-22T01:55:07.527Z,70.10
2018-08-22T01:57:11.018Z,70.20
2018-08-22T01:59:14.819Z,70.40
2018-08-22T02:01:18.335Z,70.50
2018-08-22T02:03:22.066Z,71.10
2018-08-22T02:05:25.644Z,71.60
2018-08-22T02:07:29.229Z,71.70
2018-08-22T02:09:32.712Z,71.50
2018-08-22T02:11:36.264Z,71.60
2018-08-22T02:13:39.794Z,70.90
2018-08-22T02:15:43.436Z,71.50
2018-08-22T02:17:46.923Z,70.20
2018-08-22T02:19:50.495Z,70.10
2018-08-22T02:21:53.978Z,69.90
2018-08-22T02:23:57.574Z,69.40
2018-08-22T02:26:01.063Z,69.60
2018-08-22T02:28:04.723Z,70.00
2018-08-22T02:30:08.370Z,69.20
2018-08-22T02:32:11.923Z,69.20
2018-08-22T02:34:15.588Z,69.20
2018-08-22T02:36:19.141Z,69.90
2018-08-22T02:38:25.688Z,69.50
2018-08-22T02:40:29.195Z,69.40
2018-08-22T02:42:32.680Z,69.90
2018-08-22T02:44:36.204Z,69.60
2018-08-22T02:46:39.684Z,69.70
2018-08-22T02:48:48.298Z,70.10
2018-08-22T02:50:51.831Z,70.30
2018-08-22T02:52:56.170Z,70.10
2018-08-22T02:54:59.679Z,69.90
2018-08-22T02:57:03.243Z,70.30
2018-08-22T02:59:06.759Z,70.80
2018-08-22T03:01:10.288Z,70.70
2018-08-22T03:03:13.839Z,70.80
2018-08-22T03:05:17.395Z,70.40
2018-08-22T03:07:20.916Z,70.30
2018-08-22T03:09:24.535Z,70.10
2018-08-22T03:11:28.038Z,70.10
2018-08-22T03:13:31.531Z,70.40
2018-08-22T03:15:35.108Z,71.00
2018-08-22T03:17:38.585Z,71.00
2018-08-22T03:19:42.102Z,70.90
2018-08-22T03:21:45.740Z,71.00
2018-08-22T03:23:49.268Z,71.10
2018-08-22T03:25:52.824Z,71.00
2018-08-22T03:27:56.321Z,71.40
2018-08-22T03:29:59.838Z,71.60
2018-08-22T03:32:03.404Z,71.50
2018-08-22T03:34:07.031Z,71.40
2018-08-22T03:36:10.553Z,71.30
2018-08-22T03:38:14.056Z,71.10
2018-08-22T03:40:17.575Z,71.70
2018-08-22T03:42:21.264Z,72.60
2018-08-22T03:44:24.930Z,72.90
2018-08-22T03:46:28.440Z,72.50
2018-08-22T03:48:32.052Z,72.70
2018-08-22T03:50:35.551Z,73.00
2018-08-22T03:52:39.111Z,73.00
2018-08-22T03:54:42.639Z,72.80
2018-08-22T03:56:46.224Z,72.20
2018-08-22T03:58:49.713Z,71.80
2018-08-22T04:00:53.319Z,71.90
2018-08-22T04:02:56.801Z,72.40
2018-08-22T04:05:00.352Z,73.20
2018-08-22T04:07:03.884Z,73.20
2018-08-22T04:09:07.884Z,73.20
2018-08-22T04:11:11.372Z,73.20
2018-08-22T04:13:14.872Z,73.30
2018-08-22T04:15:18.376Z,73.60
2018-08-22T04:17:26.129Z,73.00
2018-08-22T04:19:29.718Z,72.50
2018-08-22T04:21:33.212Z,73.50
2018-08-22T04:23:36.819Z,74.60
2018-08-22T04:25:40.326Z,76.10
2018-08-22T04:27:43.832Z,75.60
2018-08-22T04:29:47.332Z,75.00
2018-08-22T04:31:51.192Z,74.50
2018-08-22T04:33:54.690Z,74.00
2018-08-22T04:35:58.304Z,73.50
2018-08-22T04:38:01.783Z,73.30
2018-08-22T04:40:05.371Z,74.30
2018-08-22T04:42:08.896Z,75.60
2018-08-22T04:44:12.395Z,75.40
2018-08-22T04:46:16.012Z,76.10
2018-08-22T04:48:19.602Z,77.40
2018-08-22T04:50:23.127Z,77.00
2018-08-22T04:52:26.615Z,76.70
2018-08-22T04:54:30.105Z,75.80
2018-08-22T04:56:33.747Z,74.80
2018-08-22T04:58:37.293Z,74.40
2018-08-22T05:00:40.780Z,74.70
2018-08-22T05:02:44.303Z,75.50
2018-08-22T05:04:47.903Z,76.30
2018-08-22T05:06:51.404Z,76.80
2018-08-22T05:08:54.941Z,78.10
2018-08-22T05:10:58.446Z,77.90
2018-08-22T05:13:01.935Z,77.70
2018-08-22T05:15:05.492Z,77.10
2018-08-22T05:17:09.002Z,76.20
2018-08-22T05:19:12.480Z,76.50
2018-08-22T05:21:16.039Z,77.80
2018-08-22T05:23:19.593Z,78.30
2018-08-22T05:25:23.172Z,77.80
2018-08-22T05:27:26.769Z,78.20
2018-08-22T05:29:30.240Z,77.90
2018-08-22T05:31:33.816Z,78.60
2018-08-22T05:33:37.374Z,77.80
2018-08-22T05:35:40.956Z,76.80
2018-08-22T05:37:44.454Z,76.00
2018-08-22T05:39:47.980Z,75.80
2018-08-22T05:41:51.522Z,75.20
2018-08-22T05:43:55.033Z,75.20
2018-08-22T05:45:58.554Z,75.40
2018-08-22T05:48:02.158Z,74.90
2018-08-22T05:50:06.011Z,74.50
2018-08-22T05:52:09.639Z,75.00
2018-08-22T05:54:13.140Z,74.40
2018-08-22T05:56:16.611Z,73.90
2018-08-22T05:58:20.112Z,73.90
2018-08-22T06:00:23.615Z,73.70
2018-08-22T06:02:27.192Z,73.80
2018-08-22T06:04:30.716Z,73.70
2018-08-22T06:06:34.332Z,73.20
2018-08-22T06:08:38.003Z,73.30
2018-08-22T06:10:41.578Z,72.90
2018-08-22T06:12:45.096Z,73.50
2018-08-22T06:14:48.885Z,73.40
2018-08-22T06:16:52.395Z,73.30
2018-08-22T06:18:55.876Z,74.30
2018-08-22T06:20:59.379Z,73.50
2018-08-22T06:23:02.945Z,73.40
2018-08-22T06:25:06.495Z,73.60
2018-08-22T06:27:10.078Z,73.30
2018-08-22T06:29:13.638Z,73.00
2018-08-22T06:31:17.283Z,72.60
2018-08-22T06:33:20.881Z,72.80
2018-08-22T06:35:24.418Z,72.80
2018-08-22T06:37:28.004Z,72.50
2018-08-22T06:39:31.524Z,72.30
2018-08-22T06:41:35.027Z,71.90
2018-08-22T06:43:38.507Z,71.60
2018-08-22T06:45:42.006Z,72.00
2018-08-22T06:47:45.617Z,71.70
2018-08-22T06:49:49.212Z,71.60
2018-08-22T06:51:52.776Z,72.00
2018-08-22T06:53:56.385Z,71.70
2018-08-22T06:55:59.873Z,71.60
2018-08-22T06:58:03.383Z,71.90
2018-08-22T07:00:07.280Z,72.00
2018-08-22T07:02:10.807Z,72.20
2018-08-22T07:04:14.312Z,71.20
2018-08-22T07:06:17.867Z,71.30
2018-08-22T07:08:21.439Z,71.10
2018-08-22T07:10:24.987Z,71.00
2018-08-22T07:12:28.563Z,70.60
2018-08-22T07:14:32.077Z,70.70
2018-08-22T07:16:35.630Z,70.30
2018-08-22T07:18:39.135Z,71.50
2018-08-22T07:20:42.655Z,71.20
2018-08-22T07:22:46.143Z,70.60
2018-08-22T07:24:49.636Z,70.10
2018-08-22T07:26:53.369Z,70.40
2018-08-22T07:28:56.868Z,70.40
2018-08-22T07:31:00.362Z,69.80
2018-08-22T07:33:03.955Z,70.00
2018-08-22T07:35:07.448Z,69.00
2018-08-22T07:37:11.012Z,69.50
2018-08-22T07:39:14.533Z,69.20
2018-08-22T07:41:18.023Z,69.40
2018-08-22T07:43:21.547Z,69.20
2018-08-22T07:45:25.054Z,69.10
2018-08-22T07:47:28.591Z,68.50
2018-08-22T07:49:32.107Z,69.50
2018-08-22T07:51:35.678Z,69.50
2018-08-22T07:53:39.272Z,67.70
2018-08-22T07:55:43.441Z,67.60
2018-08-22T07:57:47.059Z,67.20
2018-08-22T07:59:51.261Z,67.40
2018-08-22T08:01:55.043Z,67.60
2018-08-22T08:03:58.520Z,67.00
2018-08-22T08:06:02.000Z,68.00
2018-08-22T08:08:05.660Z,68.10
2018-08-22T08:10:12.104Z,67.80
2018-08-22T08:12:15.687Z,67.80
2018-08-22T08:14:19.162Z,68.00
2018-08-22T08:16:22.840Z,67.80
2018-08-22T08:18:26.874Z,67.70
2018-08-22T08:20:30.388Z,68.00
2018-08-22T08:22:33.935Z,69.40
2018-08-22T08:24:37.537Z,68.00
2018-08-22T08:26:41.079Z,67.60
2018-08-22T08:28:44.663Z,66.70
2018-08-22T08:30:48.148Z,66.90
2018-08-22T08:32:51.619Z,66.30
2018-08-22T08:34:55.270Z,67.10
2018-08-22T08:36:58.750Z,66.00
2018-08-22T08:39:02.375Z,68.00
2018-08-22T08:41:05.929Z,67.00
2018-08-22T08:43:09.429Z,66.70
2018-08-22T08:45:12.934Z,66.50
2018-08-22T08:47:16.425Z,66.30
2018-08-22T08:49:20.006Z,66.20
2018-08-22T08:51:23.519Z,66.00
2018-08-22T08:53:27.016Z,65.90
2018-08-22T08:55:30.631Z,66.00
2018-08-22T08:57:34.125Z,65.20
2018-08-22T08:59:37.629Z,65.90
2018-08-22T09:01:41.186Z,64.90
2018-08-22T09:03:44.839Z,64.30
2018-08-22T09:05:48.317Z,64.70
2018-08-22T09:07:51.856Z,65.10
2018-08-22T09:09:55.372Z,64.90
2018-08-22T09:11:59.894Z,64.20
2018-08-22T09:14:03.436Z,64.90
2018-08-22T09:16:06.925Z,63.90
2018-08-22T09:18:10.691Z,64.40
2018-08-22T09:20:14.216Z,64.60
2018-08-22T09:22:18.005Z,64.50
2018-08-22T09:24:21.531Z,64.90
2018-08-22T09:26:25.015Z,64.90
2018-08-22T09:28:28.555Z,63.80
2018-08-22T09:30:32.234Z,63.70
2018-08-22T09:32:35.860Z,63.10
2018-08-22T09:34:39.528Z,64.30
2018-08-22T09:36:43.025Z,63.10
2018-08-22T09:38:46.644Z,62.50
2018-08-22T09:40:50.278Z,62.70
2018-08-22T09:42:53.834Z,62.80
2018-08-22T09:44:57.467Z,62.20
2018-08-22T09:47:00.999Z,61.70
2018-08-22T09:49:04.596Z,61.10
2018-08-22T09:51:08.124Z,61.50
2018-08-22T09:53:11.704Z,61.20
2018-08-22T09:55:15.215Z,61.40
2018-08-22T09:57:18.745Z,61.30
2018-08-22T09:59:22.291Z,60.90
2018-08-22T10:01:30.959Z,61.20
2018-08-22T10:03:50.352Z,60.90
2018-08-22T10:05:53.971Z,61.70
2018-08-22T10:07:57.575Z,60.10
2018-08-22T10:10:01.133Z,60.00
2018-08-22T10:12:04.691Z,61.90
2018-08-22T10:14:08.229Z,61.20
2018-08-22T10:16:11.913Z,61.20
2018-08-22T10:18:15.589Z,60.50
2018-08-22T10:20:19.104Z,60.00
2018-08-22T10:22:22.637Z,60.10
2018-08-22T10:24:26.140Z,60.70
2018-08-22T10:26:29.696Z,59.40
2018-08-22T10:28:33.269Z,59.40
2018-08-22T10:30:36.798Z,59.40
2018-08-22T10:32:40.312Z,58.30
2018-08-22T10:34:43.903Z,57.50
2018-08-22T10:36:47.408Z,56.20
2018-08-22T10:38:50.911Z,56.80
2018-08-22T10:40:54.479Z,58.20
2018-08-22T10:42:57.991Z,57.70
2018-08-22T10:45:01.495Z,58.30
2018-08-22T10:47:05.012Z,57.80
2018-08-22T10:49:08.523Z,57.60
2018-08-22T10:51:12.066Z,55.80
2018-08-22T10:53:15.643Z,55.40
2018-08-22T10:55:19.255Z,55.70
2018-08-22T10:57:22.791Z,55.60
2018-08-22T10:59:26.347Z,56.10
2018-08-22T11:01:29.943Z,57.40
2018-08-22T11:03:33.459Z,55.10
2018-08-22T11:05:36.988Z,54.00
2018-08-22T11:07:40.511Z,55.70
2018-08-22T11:09:43.987Z,55.00
2018-08-22T11:11:47.579Z,54.20
2018-08-22T11:13:51.310Z,53.20
2018-08-22T11:15:55.352Z,52.40
2018-08-22T11:17:58.755Z,53.20
2018-08-22T11:20:02.291Z,53.40
2018-08-22T11:22:17.211Z,53.60
2018-08-22T11:24:31.904Z,51.60
2018-08-22T11:26:46.722Z,51.60
2018-08-22T11:29:01.624Z,51.10
2018-08-22T11:31:16.587Z,51.10
2018-08-22T11:33:31.435Z,52.30
2018-08-22T11:35:33.784Z,52.00
2018-08-22T11:37:37.284Z,51.70
2018-08-22T11:39:42.344Z,52.20
2018-08-22T11:41:45.965Z,52.40
2018-08-22T11:43:49.592Z,52.20
2018-08-22T11:45:53.407Z,51.40
2018-08-22T11:47:56.948Z,52.00
2018-08-22T11:50:00.444Z,50.30
2018-08-22T11:52:03.991Z,50.90
2018-08-22T11:54:07.480Z,51.70
2018-08-22T11:56:11.058Z,50.70
2018-08-22T11:58:14.587Z,52.00
2018-08-22T12:00:18.181Z,52.20
2018-08-22T12:02:21.731Z,49.20
2018-08-22T12:04:25.234Z,50.40
2018-08-22T12:06:28.737Z,50.20
2018-08-22T12:08:32.360Z,50.80
2018-08-22T12:10:35.929Z,50.00
2018-08-22T12:12:39.420Z,49.00
2018-08-22T12:14:42.919Z,49.10
2018-08-22T12:16:46.609Z,48.50
2018-08-22T12:18:50.247Z,47.80
2018-08-22T12:20:53.775Z,47.60
2018-08-22T12:22:57.456Z,47.90
2018-08-22T12:25:00.901Z,47.60
2018-08-22T12:27:04.566Z,48.00
2018-08-22T12:29:08.093Z,48.10
2018-08-22T12:31:11.626Z,47.20
2018-08-22T12:33:15.152Z,48.80
2018-08-22T12:35:18.656Z,47.70
2018-08-22T12:37:22.152Z,48.70
2018-08-22T12:39:25.752Z,48.20
2018-08-22T12:41:29.246Z,46.90
2018-08-22T12:43:32.765Z,49.20
2018-08-22T12:45:36.280Z,48.20
2018-08-22T12:47:39.887Z,47.60
2018-08-22T12:49:43.494Z,47.00
2018-08-22T12:51:46.986Z,48.10
2018-08-22T12:53:50.489Z,47.60
2018-08-22T12:55:53.987Z,46.00
2018-08-22T12:57:57.523Z,46.40
2018-08-22T13:00:01.108Z,46.30
2018-08-22T13:02:04.651Z,45.60
2018-08-22T13:04:08.203Z,46.30
2018-08-22T13:06:11.680Z,46.60
2018-08-22T13:08:15.428Z,45.90
2018-08-22T13:10:19.082Z,45.70
2018-08-22T13:12:22.604Z,45.40
2018-08-22T13:14:26.206Z,45.70
2018-08-22T13:16:29.736Z,46.30
2018-08-22T13:18:33.272Z,45.70
2018-08-22T13:20:36.792Z,46.30
2018-08-22T13:22:40.359Z,47.00
2018-08-22T13:24:43.898Z,46.80
2018-08-22T13:26:47.384Z,46.00
2018-08-22T13:28:50.900Z,44.90
2018-08-22T13:30:54.427Z,46.20
2018-08-22T13:32:57.970Z,45.20
2018-08-22T13:35:01.548Z,45.50
2018-08-22T13:37:05.126Z,44.50
2018-08-22T13:39:09.919Z,44.30
2018-08-22T13:41:13.420Z,45.00
2018-08-22T13:43:17.024Z,44.30
2018-08-22T13:45:20.615Z,44.10
2018-08-22T13:47:24.143Z,42.90
2018-08-22T13:49:27.668Z,43.10
2018-08-22T13:51:31.243Z,43.80
2018-08-22T13:53:34.767Z,43.80
2018-08-22T13:55:38.361Z,45.00
2018-08-22T13:57:41.876Z,43.70
2018-08-22T13:59:45.361Z,43.60
2018-08-22T14:01:48.975Z,43.10
2018-08-22T14:03:52.610Z,42.70
2018-08-22T14:05:56.130Z,43.40
2018-08-22T14:07:59.771Z,42.90
2018-08-22T14:10:03.500Z,43.60
2018-08-22T14:12:07.076Z,43.20
2018-08-22T14:14:10.666Z,43.50
2018-08-22T14:16:14.143Z,43.20
2018-08-22T14:18:17.804Z,43.00
2018-08-22T14:20:21.337Z,41.60
2018-08-22T14:22:24.906Z,42.30
2018-08-22T14:24:28.378Z,42.40
2018-08-22T14:26:31.991Z,42.80
2018-08-22T14:28:35.514Z,42.70
2018-08-22T14:30:39.083Z,42.50
2018-08-22T14:32:42.565Z,42.70
2018-08-22T14:34:46.138Z,43.70
2018-08-22T14:36:49.644Z,44.00
2018-08-22T14:38:53.169Z,42.80
2018-08-22T14:40:56.828Z,41.90
2018-08-22T14:43:00.340Z,41.90
2018-08-22T14:45:03.945Z,41.60
2018-08-22T14:47:07.371Z,41.80
2018-08-22T14:49:10.906Z,42.50
2018-08-22T14:51:14.403Z,41.70
2018-08-22T14:53:17.956Z,41.90
2018-08-22T14:55:21.552Z,42.00
2018-08-22T14:57:25.067Z,42.00
2018-08-22T14:59:28.811Z,41.60
2018-08-22T15:01:32.324Z,41.40
2018-08-22T15:03:36.075Z,42.30
2018-08-22T15:05:39.314Z,41.90
2018-08-22T15:07:42.836Z,42.10
2018-08-22T15:09:46.396Z,42.20
2018-08-22T15:11:49.944Z,41.70
2018-08-22T15:13:53.582Z,41.80
2018-08-22T15:15:57.083Z,40.90
2018-08-22T15:18:00.600Z,41.30
2018-08-22T15:20:04.235Z,41.10
2018-08-22T15:22:07.820Z,41.30
2018-08-22T15:24:11.352Z,42.00
2018-08-22T15:26:14.895Z,41.80
2018-08-22T15:28:18.387Z,41.00
2018-08-22T15:30:21.915Z,40.70
2018-08-22T15:32:25.847Z,41.10
2018-08-22T15:34:40.769Z,41.80
2018-08-22T15:36:44.310Z,41.00
2018-08-22T15:38:47.907Z,42.00
2018-08-22T15:40:51.462Z,41.80
2018-08-22T15:42:54.967Z,42.30
2018-08-22T15:44:58.454Z,41.80
2018-08-22T15:47:01.935Z,40.70
2018-08-22T15:49:05.602Z,40.70
2018-08-22T15:51:09.183Z,40.40
2018-08-22T15:53:19.399Z,40.70
2018-08-22T15:55:22.906Z,40.70
2018-08-22T15:57:26.551Z,40.80
2018-08-22T15:59:30.036Z,42.00
2018-08-22T16:01:33.582Z,41.90
2018-08-22T16:03:37.080Z,42.90
2018-08-22T16:05:41.555Z,43.30
2018-08-22T16:07:45.375Z,43.50
2018-08-22T16:09:48.864Z,43.80
2018-08-22T16:11:52.496Z,44.20
2018-08-22T16:13:56.103Z,45.50
2018-08-22T16:16:02.334Z,46.30
2018-08-22T16:18:09.204Z,46.70
2018-08-22T16:20:12.787Z,47.30
2018-08-22T16:22:16.294Z,47.40
2018-08-22T16:24:24.165Z,47.60
2018-08-22T16:26:28.695Z,48.00
2018-08-22T16:28:43.953Z,48.60
2018-08-22T16:30:56.859Z,49.00
2018-08-22T16:32:52.067Z,49.30
2018-08-22T16:34:55.600Z,49.30
2018-08-22T16:36:59.111Z,49.70
2018-08-22T16:39:02.625Z,49.50
2018-08-22T16:41:06.268Z,50.00
2018-08-22T16:43:09.744Z,50.30
2018-08-22T16:45:13.242Z,51.20
2018-08-22T16:47:16.828Z,51.50
2018-08-22T16:49:20.397Z,51.70
2018-08-22T16:51:24.474Z,51.90
2018-08-22T16:53:28.040Z,51.40
2018-08-22T16:55:31.615Z,51.00
2018-08-22T16:57:35.130Z,51.20
2018-08-22T16:59:38.713Z,51.80
2018-08-22T17:01:44.346Z,51.70
2018-08-22T17:03:48.099Z,51.80
2018-08-22T17:05:59.089Z,51.60
2018-08-22T17:08:02.664Z,52.10
2018-08-22T17:10:06.439Z,52.60
2018-08-22T17:12:09.936Z,52.50
2018-08-22T17:14:13.567Z,52.70
2018-08-22T17:16:17.095Z,52.80
2018-08-22T17:18:20.578Z,53.50
2018-08-22T17:20:24.178Z,54.80
2018-08-22T17:22:27.667Z,54.80
2018-08-22T17:24:31.205Z,53.50
2018-08-22T17:26:34.710Z,53.30
2018-08-22T17:28:39.514Z,53.70
2018-08-22T17:30:43.552Z,53.70
2018-08-22T17:32:47.048Z,53.70
2018-08-22T17:34:50.595Z,53.00
2018-08-22T17:37:04.183Z,53.10
2018-08-22T17:39:08.013Z,53.80
2018-08-22T17:41:11.596Z,53.90
2018-08-22T17:43:15.074Z,53.30
2018-08-22T17:45:31.563Z,53.60
2018-08-22T17:47:35.151Z,52.30
2018-08-22T17:49:39.144Z,53.30
2018-08-22T17:51:55.206Z,53.50
2018-08-22T17:53:58.793Z,54.70
2018-08-22T17:56:02.315Z,58.50
2018-08-22T17:58:06.108Z,61.10
2018-08-22T18:00:09.699Z,65.20
2018-08-22T18:02:13.315Z,66.10
2018-08-22T18:04:16.848Z,70.30
2018-08-22T18:06:20.558Z,71.30
2018-08-22T18:08:24.140Z,72.50
2018-08-22T18:10:27.680Z,72.40
2018-08-22T18:12:31.382Z,76.50
2018-08-22T18:14:34.969Z,78.40
2018-08-22T18:16:38.467Z,79.20
2018-08-22T18:18:42.170Z,80.00
2018-08-22T18:20:47.680Z,83.20
2018-08-22T18:22:51.232Z,84.60
2018-08-22T18:24:55.567Z,86.40
2018-08-22T18:26:59.660Z,87.60
2018-08-22T18:29:03.237Z,88.90
2018-08-22T18:31:06.992Z,87.50
2018-08-22T18:33:10.987Z,86.40
2018-08-22T18:35:14.716Z,86.00
2018-08-22T18:37:18.285Z,85.70
2018-08-22T18:39:21.836Z,85.50
2018-08-22T18:41:25.388Z,85.10
2018-08-22T18:43:28.910Z,84.50
2018-08-22T18:45:32.682Z,85.20
2018-08-22T18:47:36.881Z,83.40
2018-08-22T18:49:40.452Z,82.90
2018-08-22T18:51:44.951Z,83.30
2018-08-22T18:53:48.558Z,80.50
2018-08-22T18:56:02.100Z,81.00
2018-08-22T18:58:06.384Z,81.10
2018-08-22T19:00:09.965Z,80.80
2018-08-22T19:02:13.523Z,80.10
2018-08-22T19:04:17.217Z,82.30
2018-08-22T19:06:20.734Z,83.40
2018-08-22T19:08:24.378Z,84.00
2018-08-22T19:10:30.006Z,84.50
2018-08-22T19:12:33.564Z,83.90
2018-08-22T19:14:46.847Z,83.50
2018-08-22T19:16:50.439Z,84.80
2018-08-22T19:18:54.145Z,86.10
2018-08-22T19:20:59.533Z,84.70
2018-08-22T19:23:03.415Z,84.50
2018-08-22T19:25:07.390Z,85.20
2018-08-22T19:27:10.867Z,85.40
2018-08-22T19:29:14.426Z,85.30
2018-08-22T19:31:18.057Z,85.20
2018-08-22T19:33:22.884Z,86.60
2018-08-22T19:35:26.594Z,87.30
2018-08-22T19:37:30.146Z,85.90
2018-08-22T19:39:33.971Z,84.20
2018-08-22T19:41:37.563Z,82.10
2018-08-22T19:43:41.256Z,82.20
2018-08-22T19:45:44.744Z,80.70
2018-08-22T19:47:48.269Z,81.10
2018-08-22T19:49:51.776Z,81.80
2018-08-22T19:51:55.294Z,81.80
2018-08-22T19:54:07.511Z,80.60
2018-08-22T19:56:11.052Z,80.50
2018-08-22T19:58:17.722Z,80.70
2018-08-22T20:00:21.430Z,80.10
2018-08-22T20:02:24.951Z,81.30
2018-08-22T20:04:28.553Z,82.40
2018-08-22T20:06:32.092Z,82.10
2018-08-22T20:08:36.186Z,82.20
2018-08-22T20:10:39.747Z,81.50
2018-08-22T20:12:46.104Z,81.80
2018-08-22T20:14:52.096Z,81.60
2018-08-22T20:16:55.645Z,80.60
2018-08-22T20:19:03.356Z,80.90
2018-08-22T20:21:07.819Z,81.30
2018-08-22T20:23:11.428Z,81.60
2018-08-22T20:25:15.272Z,81.10
2018-08-22T20:27:18.914Z,82.20
2018-08-22T20:29:22.564Z,82.80
2018-08-22T20:31:26.090Z,82.80
2018-08-22T20:33:29.619Z,82.40
2018-08-22T20:35:34.507Z,82.60
2018-08-22T20:37:38.079Z,83.10
2018-08-22T20:39:42.012Z,83.30
2018-08-22T20:41:45.591Z,83.30
2018-08-22T20:43:49.263Z,84.30
2018-08-22T20:45:52.847Z,84.50
2018-08-22T20:48:01.722Z,84.10
2018-08-22T20:50:05.433Z,85.10
2018-08-22T20:52:08.963Z,84.70
2018-08-22T20:54:13.762Z,84.60
2018-08-22T20:56:17.347Z,84.80
2018-08-22T20:58:25.194Z,84.60
2018-08-22T21:00:28.806Z,84.40
2018-08-22T21:02:32.332Z,84.10
2018-08-22T21:04:36.508Z,85.70
2018-08-22T21:06:40.142Z,85.40
2018-08-22T21:08:43.752Z,88.50
2018-08-22T21:10:47.372Z,90.30
2018-08-22T21:12:51.240Z,90.80
2018-08-22T21:14:54.914Z,91.80
2018-08-22T21:16:58.906Z,90.90
2018-08-22T21:19:02.444Z,90.00
2018-08-22T21:21:10.130Z,89.50
2018-08-22T21:23:13.670Z,88.60
2018-08-22T21:25:17.770Z,88.00
2018-08-22T21:27:21.263Z,88.30
2018-08-22T21:29:24.787Z,88.30
2018-08-22T21:31:28.456Z,87.60
2018-08-22T21:33:32.005Z,87.40
2018-08-22T21:35:35.735Z,87.40
2018-08-22T21:37:39.227Z,87.30
2018-08-22T21:39:42.756Z,87.70
2018-08-22T21:41:47.041Z,88.20
2018-08-22T21:43:50.518Z,89.10
2018-08-22T21:45:54.054Z,90.10
2018-08-22T21:48:12.223Z,90.20
2018-08-22T21:50:15.736Z,90.00
2018-08-22T21:52:19.290Z,90.10
2018-08-22T21:54:22.803Z,90.60
2018-08-22T21:56:26.361Z,90.80
2018-08-22T21:58:29.954Z,90.50
2018-08-22T22:00:33.584Z,91.00
2018-08-22T22:02:42.253Z,90.60
2018-08-22T22:04:45.907Z,90.50
2018-08-22T22:06:50.169Z,90.00
2018-08-22T22:08:53.847Z,90.40
2018-08-22T22:11:00.523Z,90.30
2018-08-22T22:13:04.091Z,91.00
2018-08-22T22:15:08.298Z,91.90
2018-08-22T22:17:11.856Z,91.60
2018-08-22T22:19:15.357Z,91.80
2018-08-22T22:21:18.892Z,92.10
2018-08-22T22:23:22.451Z,92.30
2018-08-22T22:25:25.938Z,92.60
2018-08-22T22:27:29.475Z,93.20
2018-08-22T22:29:33.368Z,93.20
2018-08-22T22:31:36.899Z,93.60
2018-08-22T22:33:47.368Z,93.70
2018-08-22T22:35:50.904Z,94.00
2018-08-22T22:37:59.953Z,93.20
2018-08-22T22:40:03.706Z,92.50
2018-08-22T22:42:27.674Z,92.20
2018-08-22T22:44:31.236Z,91.60
2018-08-22T22:46:34.836Z,91.80
2018-08-22T22:48:40.867Z,91.60
2018-08-22T22:50:44.527Z,92.10
2018-08-22T22:52:48.002Z,92.90
2018-08-22T22:54:54.210Z,92.90
2018-08-22T22:56:57.795Z,93.00
2018-08-22T22:59:01.276Z,92.60
2018-08-22T23:01:05.351Z,92.00
2018-08-22T23:03:08.867Z,92.20
2018-08-22T23:05:12.442Z,91.90
2018-08-22T23:07:19.487Z,92.50
2018-08-22T23:09:23.251Z,92.40
2018-08-22T23:11:26.737Z,91.90
2018-08-22T23:13:30.307Z,91.80
2018-08-22T23:15:33.791Z,91.50
2018-08-22T23:17:37.500Z,92.50
2018-08-22T23:19:40.995Z,92.50
2018-08-22T23:21:44.495Z,91.50
2018-08-22T23:23:47.967Z,91.00
2018-08-22T23:25:51.554Z,90.50
2018-08-22T23:27:55.195Z,90.30
2018-08-22T23:29:58.827Z,90.10
2018-08-22T23:32:02.410Z,90.20
2018-08-22T23:34:06.219Z,90.80
2018-08-22T23:36:09.796Z,90.50
2018-08-22T23:38:18.719Z,90.40
2018-08-22T23:40:23.618Z,90.10
2018-08-22T23:42:27.205Z,88.50
2018-08-22T23:44:30.832Z,87.90
2018-08-22T23:46:34.336Z,87.00
2018-08-22T23:48:38.423Z,87.90
2018-08-22T23:50:48.391Z,89.00
2018-08-22T23:52:53.688Z,89.10
2018-08-22T23:54:57.264Z,88.80
2018-08-22T23:57:05.760Z,88.40
2018-08-22T23:59:09.255Z,88.10
